EZS96ZU LFSB-LKPR
Flight info
| Callsign | EZS96ZU |
|---|---|
| Flight time | N/A |
| Altitude | 35000 |
| Route | ELBEG Y715 AMRUP N491 TRA DCT DEGES DCT GAMSA N871 XEBIX DCT TULSI N871 NENUM Z39 DOLUP DCT APRAQ |
| Aircraft | A320/M-SDE2E3FGHIJ1RWXYZ/LB1 |
Departure
| Time | 2026-05-03 21:54 |
|---|---|
| Airport | EuroAirport Basel–Mulhouse–Freiburg (LFSB) |
Arrival
| Time | N/A |
|---|---|
| Airport | Václav Havel Airport Prague (LKPR) |
| Time | Latitude | Longitude | Altitude | Speed | Heading |
|---|---|---|---|---|---|
| 2026-05-03 20:52 | 47.59797 | 7.52842 | 886 ft | 0 kts | 69° |
| 2026-05-03 21:44 | 47.59794 | 7.52830 | 886 ft | 4 kts | 68° |
| 2026-05-03 21:44 | 47.59783 | 7.52796 | 887 ft | 4 kts | 52° |
| 2026-05-03 21:44 | 47.59765 | 7.52773 | 887 ft | 4 kts | 6° |
| 2026-05-03 21:44 | 47.59754 | 7.52774 | 887 ft | 0 kts | 334° |
| 2026-05-03 21:48 | 47.59759 | 7.52771 | 887 ft | 2 kts | 334° |
| 2026-05-03 21:49 | 47.59774 | 7.52760 | 887 ft | 5 kts | 334° |
| 2026-05-03 21:49 | 47.59817 | 7.52731 | 887 ft | 8 kts | 338° |
| 2026-05-03 21:49 | 47.59842 | 7.52679 | 887 ft | 7 kts | 266° |
| 2026-05-03 21:49 | 47.59853 | 7.52615 | 887 ft | 7 kts | 315° |
| 2026-05-03 21:50 | 47.59908 | 7.52576 | 887 ft | 10 kts | 335° |
| 2026-05-03 21:50 | 47.59984 | 7.52523 | 887 ft | 14 kts | 333° |
| 2026-05-03 21:50 | 47.60078 | 7.52458 | 887 ft | 16 kts | 335° |
| 2026-05-03 21:50 | 47.60186 | 7.52383 | 887 ft | 18 kts | 335° |
| 2026-05-03 21:51 | 47.60306 | 7.52299 | 887 ft | 20 kts | 334° |
| 2026-05-03 21:51 | 47.60419 | 7.52220 | 887 ft | 18 kts | 334° |
| 2026-05-03 21:51 | 47.60542 | 7.52134 | 886 ft | 21 kts | 335° |
| 2026-05-03 21:51 | 47.60651 | 7.52059 | 886 ft | 18 kts | 334° |
| 2026-05-03 21:52 | 47.60771 | 7.51975 | 886 ft | 20 kts | 335° |
| 2026-05-03 21:52 | 47.60899 | 7.51886 | 886 ft | 18 kts | 335° |
| 2026-05-03 21:52 | 47.61019 | 7.51802 | 887 ft | 20 kts | 335° |
| 2026-05-03 21:52 | 47.61078 | 7.51688 | 887 ft | 14 kts | 262° |
| 2026-05-03 21:53 | 47.61036 | 7.51550 | 886 ft | 16 kts | 234° |
| 2026-05-03 21:53 | 47.60939 | 7.51567 | 888 ft | 19 kts | 154° |
| 2026-05-03 21:53 | 47.60583 | 7.51814 | 887 ft | 99 kts | 155° |
| 2026-05-03 21:53 | 47.59738 | 7.52400 | 892 ft | 166 kts | 155° |
| 2026-05-03 21:54 | 47.58622 | 7.53175 | 1459 ft | 180 kts | 154° |
| 2026-05-03 21:54 | 47.57473 | 7.54002 | 2247 ft | 187 kts | 154° |
| 2026-05-03 21:54 | 47.56249 | 7.54754 | 2728 ft | 201 kts | 173° |
| 2026-05-03 21:54 | 47.54890 | 7.54221 | 3249 ft | 207 kts | 224° |
| 2026-05-03 21:55 | 47.54226 | 7.52474 | 4177 ft | 199 kts | 260° |
| 2026-05-03 21:55 | 47.54503 | 7.50389 | 4528 ft | 225 kts | 302° |
| 2026-05-03 21:55 | 47.55785 | 7.48992 | 5160 ft | 241 kts | 341° |
| 2026-05-03 21:55 | 47.57456 | 7.48509 | 5894 ft | 248 kts | 346° |
| 2026-05-03 21:56 | 47.59197 | 7.48108 | 6632 ft | 252 kts | 346° |
| 2026-05-03 21:56 | 47.60939 | 7.47679 | 7357 ft | 255 kts | 345° |
| 2026-05-03 21:56 | 47.62683 | 7.47228 | 8073 ft | 261 kts | 350° |
| 2026-05-03 21:56 | 47.64529 | 7.47622 | 8775 ft | 274 kts | 23° |
| 2026-05-03 21:57 | 47.66058 | 7.49383 | 9288 ft | 291 kts | 56° |
| 2026-05-03 21:57 | 47.66676 | 7.51184 | 9504 ft | 302 kts | 76° |
| 2026-05-03 21:57 | 47.67187 | 7.54264 | 10079 ft | 311 kts | 82° |
| 2026-05-03 21:57 | 47.67596 | 7.57503 | 10459 ft | 329 kts | 82° |
| 2026-05-03 21:58 | 47.67982 | 7.60904 | 11043 ft | 338 kts | 83° |
| 2026-05-03 21:58 | 47.68375 | 7.64364 | 11791 ft | 341 kts | 82° |
| 2026-05-03 21:58 | 47.68784 | 7.67838 | 12555 ft | 345 kts | 82° |
| 2026-05-03 21:58 | 47.69216 | 7.71348 | 13302 ft | 348 kts | 81° |
| 2026-05-03 21:59 | 47.69709 | 7.74893 | 14006 ft | 352 kts | 75° |
| 2026-05-03 21:59 | 47.70536 | 7.78325 | 14640 ft | 355 kts | 70° |
| 2026-05-03 21:59 | 47.71416 | 7.81758 | 15292 ft | 358 kts | 70° |
| 2026-05-03 21:59 | 47.72298 | 7.85226 | 15920 ft | 360 kts | 70° |
| 2026-05-03 22:00 | 47.73181 | 7.88729 | 16556 ft | 363 kts | 70° |
| 2026-05-03 22:00 | 47.74064 | 7.92260 | 17180 ft | 366 kts | 71° |
| 2026-05-03 22:00 | 47.74952 | 7.95832 | 17795 ft | 370 kts | 71° |
| 2026-05-03 22:00 | 47.75849 | 7.99427 | 18407 ft | 373 kts | 70° |
| 2026-05-03 22:01 | 47.76685 | 8.03096 | 18929 ft | 375 kts | 77° |
| 2026-05-03 22:01 | 47.77059 | 8.06938 | 19414 ft | 377 kts | 90° |
| 2026-05-03 22:01 | 47.76895 | 8.10828 | 19903 ft | 378 kts | 102° |
| 2026-05-03 22:01 | 47.76211 | 8.14597 | 20391 ft | 379 kts | 113° |
| 2026-05-03 22:02 | 47.75290 | 8.18280 | 20893 ft | 382 kts | 113° |
| 2026-05-03 22:02 | 47.74361 | 8.22005 | 21402 ft | 386 kts | 113° |
| 2026-05-03 22:02 | 47.73425 | 8.25760 | 21881 ft | 389 kts | 113° |
| 2026-05-03 22:02 | 47.72479 | 8.29552 | 22367 ft | 393 kts | 113° |
| 2026-05-03 22:03 | 47.71526 | 8.33374 | 22837 ft | 396 kts | 114° |
| 2026-05-03 22:03 | 47.70564 | 8.37224 | 23285 ft | 400 kts | 113° |
| 2026-05-03 22:03 | 47.69594 | 8.41109 | 23729 ft | 403 kts | 114° |
| 2026-05-03 22:03 | 47.68510 | 8.44941 | 24113 ft | 402 kts | 121° |
| 2026-05-03 22:04 | 47.67197 | 8.48618 | 24524 ft | 404 kts | 121° |
| 2026-05-03 22:04 | 47.65854 | 8.52366 | 24937 ft | 406 kts | 121° |
| 2026-05-03 22:04 | 47.64528 | 8.56067 | 25340 ft | 408 kts | 121° |
| 2026-05-03 22:04 | 47.63191 | 8.59790 | 25712 ft | 411 kts | 121° |
| 2026-05-03 22:05 | 47.61843 | 8.63535 | 26104 ft | 413 kts | 121° |
| 2026-05-03 22:05 | 47.60488 | 8.67303 | 26483 ft | 415 kts | 121° |
| 2026-05-03 22:05 | 47.59128 | 8.71075 | 26862 ft | 417 kts | 121° |
| 2026-05-03 22:05 | 47.57761 | 8.74863 | 27228 ft | 419 kts | 121° |
| 2026-05-03 22:06 | 47.56381 | 8.78687 | 27588 ft | 421 kts | 121° |
| 2026-05-03 22:06 | 47.54994 | 8.82523 | 27948 ft | 423 kts | 121° |
| 2026-05-03 22:06 | 47.53606 | 8.86359 | 28341 ft | 424 kts | 121° |
| 2026-05-03 22:06 | 47.52210 | 8.90211 | 28703 ft | 426 kts | 121° |
| 2026-05-03 22:07 | 47.50802 | 8.94078 | 29042 ft | 428 kts | 121° |
| 2026-05-03 22:07 | 47.49384 | 8.97960 | 29379 ft | 430 kts | 121° |
| 2026-05-03 22:07 | 47.47957 | 9.01867 | 29726 ft | 432 kts | 121° |
| 2026-05-03 22:07 | 47.46526 | 9.05778 | 30057 ft | 434 kts | 122° |
| 2026-05-03 22:08 | 47.45080 | 9.09716 | 30341 ft | 436 kts | 122° |
| 2026-05-03 22:08 | 47.43632 | 9.13660 | 30603 ft | 439 kts | 121° |
| 2026-05-03 22:08 | 47.42348 | 9.17775 | 30824 ft | 445 kts | 112° |
| 2026-05-03 22:08 | 47.41526 | 9.22198 | 31094 ft | 450 kts | 102° |
| 2026-05-03 22:09 | 47.41198 | 9.26808 | 31392 ft | 454 kts | 93° |
| 2026-05-03 22:09 | 47.41176 | 9.31530 | 31765 ft | 453 kts | 92° |
| 2026-05-03 22:09 | 47.41146 | 9.36181 | 32113 ft | 453 kts | 92° |
| 2026-05-03 22:10 | 47.41056 | 9.45474 | 32836 ft | 453 kts | 93° |
| 2026-05-03 22:10 | 47.41004 | 9.50120 | 33205 ft | 452 kts | 93° |
| 2026-05-03 22:10 | 47.40955 | 9.54760 | 33579 ft | 452 kts | 93° |
| 2026-05-03 22:10 | 47.40907 | 9.59397 | 33931 ft | 452 kts | 93° |
| 2026-05-03 22:11 | 47.40837 | 9.64014 | 34261 ft | 450 kts | 96° |
| 2026-05-03 22:11 | 47.40414 | 9.68561 | 34571 ft | 446 kts | 103° |
| 2026-05-03 22:11 | 47.39820 | 9.73063 | 34856 ft | 445 kts | 103° |
| 2026-05-03 22:11 | 47.39232 | 9.77547 | 35038 ft | 446 kts | 103° |
| 2026-05-03 22:12 | 47.38656 | 9.81993 | 35077 ft | 436 kts | 103° |
| 2026-05-03 22:12 | 47.38099 | 9.86315 | 35083 ft | 424 kts | 103° |
| 2026-05-03 22:12 | 47.37550 | 9.90562 | 35082 ft | 420 kts | 103° |
| 2026-05-03 22:13 | 47.36440 | 9.99001 | 35081 ft | 419 kts | 103° |
| 2026-05-03 22:13 | 47.35316 | 10.07418 | 35091 ft | 418 kts | 103° |
| 2026-05-03 22:14 | 47.34193 | 10.15825 | 35087 ft | 418 kts | 103° |
| 2026-05-03 22:14 | 47.33311 | 10.24284 | 35090 ft | 418 kts | 91° |
| 2026-05-03 22:14 | 47.33524 | 10.28561 | 35086 ft | 419 kts | 80° |
| 2026-05-03 22:15 | 47.34262 | 10.32711 | 35087 ft | 419 kts | 69° |
| 2026-05-03 22:15 | 47.36970 | 10.40295 | 35080 ft | 419 kts | 59° |
| 2026-05-03 22:16 | 47.39855 | 10.47762 | 35072 ft | 419 kts | 66° |
| 2026-05-03 22:16 | 47.41852 | 10.55817 | 35076 ft | 418 kts | 72° |
| 2026-05-03 22:17 | 47.43783 | 10.63976 | 35077 ft | 418 kts | 71° |
| 2026-05-03 22:17 | 47.45694 | 10.72077 | 35086 ft | 418 kts | 71° |
| 2026-05-03 22:18 | 47.47596 | 10.80203 | 35081 ft | 418 kts | 71° |
| 2026-05-03 22:18 | 47.49498 | 10.88323 | 35081 ft | 418 kts | 72° |
| 2026-05-03 22:19 | 47.51388 | 10.96442 | 35084 ft | 417 kts | 72° |
| 2026-05-03 22:19 | 47.53264 | 11.04557 | 35078 ft | 416 kts | 72° |
| 2026-05-03 22:20 | 47.55135 | 11.12647 | 35062 ft | 415 kts | 72° |
| 2026-05-03 22:20 | 47.56997 | 11.20738 | 35060 ft | 415 kts | 72° |
| 2026-05-03 22:21 | 47.58852 | 11.28829 | 35043 ft | 415 kts | 72° |
| 2026-05-03 22:21 | 47.60698 | 11.36920 | 35041 ft | 415 kts | 72° |
| 2026-05-03 22:22 | 47.62544 | 11.45026 | 35028 ft | 415 kts | 72° |
| 2026-05-03 22:22 | 47.64383 | 11.53145 | 35026 ft | 415 kts | 72° |
| 2026-05-03 22:23 | 47.66213 | 11.61281 | 35023 ft | 416 kts | 72° |
| 2026-05-03 22:23 | 47.68050 | 11.69430 | 35017 ft | 417 kts | 72° |
| 2026-05-03 22:24 | 47.69880 | 11.77602 | 35019 ft | 417 kts | 72° |
| 2026-05-03 22:24 | 47.71582 | 11.85843 | 35001 ft | 417 kts | 75° |
| 2026-05-03 22:25 | 47.73751 | 11.93792 | 35010 ft | 417 kts | 57° |
| 2026-05-03 22:25 | 47.75501 | 11.97209 | 35011 ft | 415 kts | 45° |
| 2026-05-03 22:25 | 47.77623 | 12.00082 | 35007 ft | 413 kts | 37° |
| 2026-05-03 22:26 | 47.82094 | 12.05490 | 35013 ft | 414 kts | 38° |
| 2026-05-03 22:26 | 47.86531 | 12.10957 | 35003 ft | 414 kts | 38° |
| 2026-05-03 22:27 | 47.90951 | 12.16450 | 35007 ft | 414 kts | 38° |
| 2026-05-03 22:27 | 47.95384 | 12.21943 | 35002 ft | 414 kts | 38° |
| 2026-05-03 22:28 | 47.99825 | 12.27422 | 35008 ft | 414 kts | 38° |
| 2026-05-03 22:28 | 48.04173 | 12.32800 | 34999 ft | 393 kts | 38° |
| 2026-05-03 22:28 | 48.06236 | 12.35361 | 34994 ft | 378 kts | 38° |
| 2026-05-03 22:29 | 48.08218 | 12.37825 | 34988 ft | 364 kts | 38° |
| 2026-05-03 22:29 | 48.12065 | 12.42613 | 34991 ft | 357 kts | 38° |
| 2026-05-03 22:30 | 48.15878 | 12.47374 | 34986 ft | 357 kts | 38° |
| 2026-05-03 22:30 | 48.19069 | 12.51363 | 34986 ft | 357 kts | 38° |
| 2026-05-03 22:31 | 48.22875 | 12.56141 | 34981 ft | 357 kts | 38° |
| 2026-05-03 22:31 | 48.26782 | 12.60720 | 34975 ft | 356 kts | 34° |
| 2026-05-03 22:32 | 48.30787 | 12.65084 | 34978 ft | 356 kts | 34° |
| 2026-05-03 22:32 | 48.34788 | 12.69472 | 34977 ft | 356 kts | 35° |
| 2026-05-03 22:33 | 48.38770 | 12.73911 | 34969 ft | 355 kts | 35° |
| 2026-05-03 22:33 | 48.42464 | 12.78816 | 34972 ft | 356 kts | 41° |
| 2026-05-03 22:34 | 48.46095 | 12.83904 | 34973 ft | 356 kts | 41° |
| 2026-05-03 22:34 | 48.49715 | 12.88962 | 34973 ft | 354 kts | 41° |
| 2026-05-03 22:35 | 48.53351 | 12.93968 | 34972 ft | 353 kts | 36° |
| 2026-05-03 22:35 | 48.57494 | 12.97869 | 34979 ft | 351 kts | 27° |
| 2026-05-03 22:36 | 48.61753 | 13.01515 | 34969 ft | 352 kts | 28° |
| 2026-05-03 22:36 | 48.66009 | 13.05188 | 34969 ft | 352 kts | 28° |
| 2026-05-03 22:37 | 48.70267 | 13.08857 | 34972 ft | 352 kts | 28° |
| 2026-05-03 22:37 | 48.74527 | 13.12533 | 34972 ft | 352 kts | 28° |
| 2026-05-03 22:38 | 48.78784 | 13.16217 | 34975 ft | 353 kts | 28° |
| 2026-05-03 22:38 | 48.80922 | 13.18064 | 34718 ft | 354 kts | 28° |
| 2026-05-03 22:38 | 48.83049 | 13.19908 | 34366 ft | 351 kts | 28° |
| 2026-05-03 22:38 | 48.85163 | 13.21744 | 33937 ft | 351 kts | 28° |
| 2026-05-03 22:39 | 48.87297 | 13.23599 | 33330 ft | 355 kts | 27° |
| 2026-05-03 22:39 | 48.89536 | 13.25205 | 32743 ft | 357 kts | 20° |
| 2026-05-03 22:39 | 48.91822 | 13.26648 | 32402 ft | 353 kts | 21° |
| 2026-05-03 22:39 | 48.94058 | 13.28065 | 32272 ft | 343 kts | 21° |
| 2026-05-03 22:40 | 48.96229 | 13.29443 | 32076 ft | 334 kts | 20° |
| 2026-05-03 22:40 | 48.98363 | 13.30796 | 31772 ft | 330 kts | 20° |
| 2026-05-03 22:40 | 49.00477 | 13.32137 | 31412 ft | 328 kts | 20° |
| 2026-05-03 22:40 | 49.02579 | 13.33473 | 31075 ft | 326 kts | 20° |
| 2026-05-03 22:41 | 49.04660 | 13.34801 | 30739 ft | 323 kts | 20° |
| 2026-05-03 22:41 | 49.06726 | 13.36119 | 30384 ft | 321 kts | 20° |
| 2026-05-03 22:41 | 49.08783 | 13.37431 | 30060 ft | 319 kts | 20° |
| 2026-05-03 22:41 | 49.10794 | 13.38820 | 29669 ft | 317 kts | 27° |
| 2026-05-03 22:42 | 49.12663 | 13.40597 | 29295 ft | 317 kts | 35° |
| 2026-05-03 22:42 | 49.14350 | 13.42745 | 28929 ft | 315 kts | 41° |
| 2026-05-03 22:42 | 49.15975 | 13.44973 | 28552 ft | 313 kts | 40° |
| 2026-05-03 22:42 | 49.17594 | 13.47176 | 28175 ft | 311 kts | 40° |
| 2026-05-03 22:43 | 49.19209 | 13.49364 | 27833 ft | 309 kts | 40° |
| 2026-05-03 22:43 | 49.20808 | 13.51531 | 27476 ft | 307 kts | 40° |
| 2026-05-03 22:43 | 49.22406 | 13.53698 | 27131 ft | 305 kts | 40° |
| 2026-05-03 22:43 | 49.23986 | 13.55848 | 26805 ft | 303 kts | 40° |
| 2026-05-03 22:44 | 49.25553 | 13.57990 | 26459 ft | 302 kts | 41° |
| 2026-05-03 22:44 | 49.27112 | 13.60125 | 26127 ft | 300 kts | 40° |
| 2026-05-03 22:44 | 49.28606 | 13.62168 | 25823 ft | 298 kts | 41° |
| 2026-05-03 22:44 | 49.30147 | 13.64281 | 25493 ft | 297 kts | 41° |
| 2026-05-03 22:45 | 49.31680 | 13.66383 | 25167 ft | 295 kts | 41° |
| 2026-05-03 22:45 | 49.32200 | 13.67094 | 25068 ft | 294 kts | 41° |
| 2026-05-03 22:46 | 49.39274 | 13.76789 | 23079 ft | 310 kts | 41° |
| 2026-05-03 22:46 | 49.40894 | 13.79019 | 22514 ft | 317 kts | 41° |
| 2026-05-03 22:46 | 49.42549 | 13.81301 | 21949 ft | 323 kts | 41° |
| 2026-05-03 22:47 | 49.44237 | 13.83630 | 21398 ft | 329 kts | 41° |
| 2026-05-03 22:47 | 49.45938 | 13.85980 | 21079 ft | 326 kts | 42° |
| 2026-05-03 22:47 | 49.47604 | 13.88290 | 20944 ft | 318 kts | 42° |
| 2026-05-03 22:47 | 49.49220 | 13.90532 | 20827 ft | 309 kts | 42° |
| 2026-05-03 22:48 | 49.50795 | 13.92717 | 20688 ft | 301 kts | 42° |
| 2026-05-03 22:48 | 49.52328 | 13.94844 | 20565 ft | 292 kts | 42° |
| 2026-05-03 22:48 | 49.53820 | 13.96915 | 20435 ft | 284 kts | 42° |
| 2026-05-03 22:48 | 49.55265 | 13.98921 | 20302 ft | 276 kts | 42° |
| 2026-05-03 22:49 | 49.56675 | 14.00879 | 20091 ft | 271 kts | 42° |
| 2026-05-03 22:49 | 49.58066 | 14.02826 | 19798 ft | 271 kts | 43° |
| 2026-05-03 22:49 | 49.59446 | 14.04806 | 19465 ft | 272 kts | 44° |
| 2026-05-03 22:49 | 49.60809 | 14.06813 | 19213 ft | 268 kts | 45° |
| 2026-05-03 22:50 | 49.62169 | 14.08763 | 18936 ft | 268 kts | 42° |
| 2026-05-03 22:50 | 49.63620 | 14.10602 | 18564 ft | 272 kts | 34° |
| 2026-05-03 22:50 | 49.65244 | 14.12082 | 18305 ft | 270 kts | 24° |
| 2026-05-03 22:50 | 49.66983 | 14.13111 | 18029 ft | 267 kts | 13° |
| 2026-05-03 22:51 | 49.68791 | 14.13662 | 17742 ft | 264 kts | 5° |
| 2026-05-03 22:51 | 49.70607 | 14.13971 | 17464 ft | 261 kts | 3° |
| 2026-05-03 22:51 | 49.72410 | 14.14273 | 17181 ft | 260 kts | 5° |
| 2026-05-03 22:51 | 49.74196 | 14.14680 | 16898 ft | 260 kts | 8° |
| 2026-05-03 22:52 | 49.75966 | 14.15232 | 16622 ft | 259 kts | 11° |
| 2026-05-03 22:52 | 49.77726 | 14.15908 | 16277 ft | 262 kts | 13° |
| 2026-05-03 22:52 | 49.79489 | 14.16673 | 15954 ft | 264 kts | 14° |
| 2026-05-03 22:52 | 49.81259 | 14.17457 | 15655 ft | 265 kts | 13° |
| 2026-05-03 22:53 | 49.83043 | 14.18184 | 15369 ft | 266 kts | 11° |
| 2026-05-03 22:53 | 49.84841 | 14.18825 | 15133 ft | 264 kts | 9° |
| 2026-05-03 22:53 | 49.86625 | 14.19380 | 14952 ft | 259 kts | 8° |
| 2026-05-03 22:53 | 49.88386 | 14.19857 | 14786 ft | 254 kts | 6° |
| 2026-05-03 22:54 | 49.90113 | 14.20276 | 14617 ft | 249 kts | 5° |
| 2026-05-03 22:54 | 49.91810 | 14.20643 | 14436 ft | 244 kts | 4° |
| 2026-05-03 22:54 | 49.93479 | 14.20959 | 14225 ft | 240 kts | 3° |
| 2026-05-03 22:54 | 49.95143 | 14.21257 | 13942 ft | 241 kts | 5° |
| 2026-05-03 22:55 | 49.96797 | 14.21679 | 13660 ft | 241 kts | 7° |
| 2026-05-03 22:55 | 49.98433 | 14.22209 | 13402 ft | 239 kts | 11° |
| 2026-05-03 22:55 | 50.00020 | 14.23005 | 13096 ft | 240 kts | 20° |
| 2026-05-03 22:55 | 50.01523 | 14.24149 | 12799 ft | 241 kts | 29° |
| 2026-05-03 22:56 | 50.02885 | 14.25670 | 12472 ft | 243 kts | 43° |
| 2026-05-03 22:56 | 50.03986 | 14.27653 | 12210 ft | 241 kts | 57° |
| 2026-05-03 22:56 | 50.04726 | 14.29958 | 11913 ft | 238 kts | 73° |
| 2026-05-03 22:56 | 50.05137 | 14.32446 | 11648 ft | 236 kts | 81° |
| 2026-05-03 22:57 | 50.05411 | 14.34940 | 11416 ft | 232 kts | 83° |
| 2026-05-03 22:57 | 50.05644 | 14.37416 | 11121 ft | 232 kts | 83° |
| 2026-05-03 22:57 | 50.05891 | 14.39874 | 10905 ft | 228 kts | 79° |
| 2026-05-03 22:57 | 50.06344 | 14.42248 | 10540 ft | 231 kts | 69° |
| 2026-05-03 22:58 | 50.06997 | 14.44544 | 10225 ft | 233 kts | 64° |
| 2026-05-03 22:58 | 50.07748 | 14.46777 | 9961 ft | 232 kts | 61° |
| 2026-05-03 22:58 | 50.08536 | 14.48953 | 9690 ft | 230 kts | 61° |
| 2026-05-03 22:58 | 50.09296 | 14.51130 | 9407 ft | 228 kts | 63° |
| 2026-05-03 22:59 | 50.10005 | 14.53335 | 9123 ft | 228 kts | 64° |
| 2026-05-03 22:59 | 50.10775 | 14.55508 | 8793 ft | 232 kts | 55° |
| 2026-05-03 22:59 | 50.11880 | 14.57407 | 8413 ft | 237 kts | 37° |
| 2026-05-03 22:59 | 50.13306 | 14.58610 | 8096 ft | 237 kts | 15° |
| 2026-05-03 23:00 | 50.14936 | 14.58835 | 7769 ft | 234 kts | 349° |
| 2026-05-03 23:00 | 50.16383 | 14.57919 | 7552 ft | 219 kts | 323° |
| 2026-05-03 23:00 | 50.17512 | 14.56422 | 7339 ft | 209 kts | 313° |
| 2026-05-03 23:00 | 50.18482 | 14.54758 | 7042 ft | 205 kts | 301° |
| 2026-05-03 23:01 | 50.19120 | 14.52783 | 6637 ft | 207 kts | 285° |
| 2026-05-03 23:01 | 50.19378 | 14.50569 | 6241 ft | 208 kts | 268° |
| 2026-05-03 23:01 | 50.19089 | 14.48394 | 5887 ft | 204 kts | 242° |
| 2026-05-03 23:01 | 50.18345 | 14.46527 | 5495 ft | 203 kts | 233° |
| 2026-05-03 23:02 | 50.17460 | 14.44723 | 4884 ft | 211 kts | 229° |
| 2026-05-03 23:02 | 50.16489 | 14.42977 | 4282 ft | 214 kts | 229° |
| 2026-05-03 23:02 | 50.15718 | 14.41108 | 3605 ft | 197 kts | 242° |
| 2026-05-03 23:02 | 50.15253 | 14.39161 | 3134 ft | 176 kts | 243° |
| 2026-05-03 23:03 | 50.14751 | 14.37567 | 2745 ft | 163 kts | 236° |
| 2026-05-03 23:03 | 50.14251 | 14.36061 | 2383 ft | 148 kts | 239° |
| 2026-05-03 23:03 | 50.13831 | 14.34676 | 2151 ft | 135 kts | 238° |
| 2026-05-03 23:03 | 50.13433 | 14.33367 | 1868 ft | 131 kts | 239° |
| 2026-05-03 23:04 | 50.13065 | 14.32112 | 1642 ft | 127 kts | 240° |
| 2026-05-03 23:04 | 50.12586 | 14.30671 | 1569 ft | 157 kts | 242° |
| 2026-05-03 23:04 | 50.12148 | 14.29188 | 1310 ft | 146 kts | 242° |
| 2026-05-03 23:04 | 50.11753 | 14.27863 | 1195 ft | 127 kts | 241° |
| 2026-05-03 23:05 | 50.11398 | 14.26703 | 1172 ft | 109 kts | 244° |
| 2026-05-03 23:05 | 50.11127 | 14.25779 | 1167 ft | 78 kts | 246° |